Time;durP1;ratioP1;P1;durP2;ratioP2;P2;SDS_P1;SDS_P2;PMS_P1;PMS_P2;Temp;Humidity;BMP_temperature;BMP_pressure;BME280_temperature;BME280_humidity;BME280_pressure;Samples;Min_cycle;Max_cycle;Signal;HPM_P1;HPM_P2
2021/10/04 00:00:02;;;;;;;5.38;3.47;;;20.10;96.70;;;;;;5102345;28;20062;-78
2021/10/04 00:02:38;;;;;;;6.05;3.58;;;20.10;96.70;;;;;;5105563;28;20097;-78
2021/10/04 00:05:07;;;;;;;5.07;3.67;;;20.10;96.70;;;;;;5085318;28;20458;-78
2021/10/04 00:07:37;;;;;;;5.38;3.58;;;20.10;96.70;;;;;;5103590;28;20424;-78
2021/10/04 00:10:08;;;;;;;5.38;3.88;;;20.10;96.70;;;;;;5102491;28;20062;-78
2021/10/04 00:12:36;;;;;;;8.00;4.05;;;20.10;96.70;;;;;;5103135;28;20417;-79
2021/10/04 00:15:07;;;;;;;6.38;3.25;;;20.10;96.70;;;;;;5086381;28;20046;-78
2021/10/04 00:17:35;;;;;;;5.15;3.70;;;20.10;96.70;;;;;;5078774;27;20035;-78
2021/10/04 00:20:05;;;;;;;6.57;3.70;;;20.10;96.70;;;;;;5085118;28;20405;-78
2021/10/04 00:22:33;;;;;;;5.60;3.42;;;20.00;96.70;;;;;;5097667;27;20488;-79
2021/10/04 00:25:03;;;;;;;6.65;3.63;;;20.00;96.70;;;;;;5102762;28;20088;-78
2021/10/04 00:27:31;;;;;;;7.43;3.25;;;20.00;96.70;;;;;;5104965;28;20440;-76
2021/10/04 00:30:05;;;;;;;6.38;3.58;;;20.00;96.70;;;;;;5087400;28;20048;-76
2021/10/04 00:32:33;;;;;;;5.50;2.80;;;20.00;96.70;;;;;;5068872;28;20520;-76
2021/10/04 00:35:02;;;;;;;5.82;3.50;;;20.00;96.70;;;;;;5085412;28;20040;-76
2021/10/04 00:37:32;;;;;;;4.20;3.33;;;20.00;96.70;;;;;;5100820;28;20043;-76
2021/10/04 00:40:00;;;;;;;4.85;3.30;;;20.00;96.70;;;;;;5068446;28;20043;-76
2021/10/04 00:42:29;;;;;;;6.05;3.72;;;20.00;96.70;;;;;;5080825;28;20039;-76
2021/10/04 00:44:57;;;;;;;6.53;3.10;;;19.90;96.70;;;;;;5104431;28;20043;-76
2021/10/04 00:47:26;;;;;;;4.72;3.05;;;19.90;96.70;;;;;;5101231;28;20047;-76
2021/10/04 00:49:54;;;;;;;5.85;3.30;;;19.80;96.70;;;;;;5104215;28;20038;-76
2021/10/04 00:52:22;;;;;;;4.30;2.83;;;19.70;96.70;;;;;;5083893;28;20496;-76
2021/10/04 00:54:50;;;;;;;3.20;2.50;;;19.70;96.70;;;;;;5104553;28;20456;-76
2021/10/04 00:57:19;;;;;;;8.95;3.55;;;19.70;96.70;;;;;;5067590;28;20180;-76
2021/10/04 00:59:48;;;;;;;5.10;3.08;;;19.70;96.70;;;;;;5085331;28;20031;-76
2021/10/04 01:02:16;;;;;;;3.45;2.92;;;19.70;96.70;;;;;;5084493;28;20416;-76
2021/10/04 01:04:45;;;;;;;4.63;3.13;;;19.70;96.70;;;;;;5102438;28;20035;-76
2021/10/04 01:07:13;;;;;;;5.82;3.75;;;19.70;96.70;;;;;;5065101;28;20039;-76
2021/10/04 01:09:41;;;;;;;5.60;3.60;;;19.60;96.70;;;;;;5085820;28;20451;-76
2021/10/04 01:12:09;;;;;;;8.10;3.55;;;19.70;96.70;;;;;;5102878;28;20071;-76
2021/10/04 01:14:37;;;;;;;6.10;3.45;;;19.60;96.70;;;;;;5084164;28;20124;-76
2021/10/04 01:17:07;;;;;;;7.32;4.05;;;19.60;96.70;;;;;;5083871;28;20035;-76
2021/10/04 01:19:39;;;;;;;7.95;3.70;;;19.60;96.70;;;;;;5084980;28;20039;-76
2021/10/04 01:22:09;;;;;;;5.30;3.30;;;19.50;96.70;;;;;;5083671;28;20069;-76
2021/10/04 01:24:37;;;;;;;5.68;3.63;;;19.60;96.70;;;;;;5103622;28;20049;-76
2021/10/04 01:27:06;;;;;;;4.93;3.38;;;19.60;96.70;;;;;;5082999;28;20051;-76
2021/10/04 01:29:34;;;;;;;6.38;3.50;;;19.50;96.70;;;;;;5102939;28;20082;-76
2021/10/04 01:32:02;;;;;;;4.90;3.28;;;19.50;96.70;;;;;;5081744;28;20032;-75
2021/10/04 01:34:31;;;;;;;6.75;3.60;;;19.50;96.70;;;;;;5103219;28;20039;-75
2021/10/04 01:36:59;;;;;;;6.20;3.42;;;19.50;96.70;;;;;;5084064;28;20134;-76
2021/10/04 01:39:28;;;;;;;5.90;3.75;;;19.50;96.70;;;;;;5103424;28;20043;-75
2021/10/04 01:41:56;;;;;;;5.88;3.72;;;19.50;96.70;;;;;;5079986;28;20032;-76
2021/10/04 01:44:24;;;;;;;4.68;3.67;;;19.50;96.70;;;;;;5076610;28;20039;-76
2021/10/04 01:46:52;;;;;;;8.60;3.20;;;19.40;96.70;;;;;;5085334;28;20038;-76
2021/10/04 01:49:20;;;;;;;5.97;3.92;;;19.40;96.70;;;;;;5080325;28;20044;-76
2021/10/04 01:51:48;;;;;;;5.97;3.95;;;19.40;96.70;;;;;;5082278;28;20028;-76
2021/10/04 01:54:17;;;;;;;5.07;3.80;;;19.40;96.70;;;;;;5078284;28;20433;-76
2021/10/04 01:56:52;;;;;;;7.13;3.67;;;19.40;96.70;;;;;;5102587;28;20420;-76
2021/10/04 01:59:20;;;;;;;6.13;4.03;;;19.40;96.70;;;;;;5083482;28;20421;-76
2021/10/04 02:01:48;;;;;;;5.85;4.00;;;19.30;96.70;;;;;;5103400;28;20360;-76
2021/10/04 02:04:16;;;;;;;6.68;3.67;;;19.30;96.70;;;;;;5080944;28;20075;-77
2021/10/04 02:06:49;;;;;;;7.43;4.22;;;19.30;96.70;;;;;;5085558;28;20054;-76
2021/10/04 02:09:17;;;;;;;7.13;4.10;;;19.20;96.70;;;;;;5063117;28;20075;-76
2021/10/04 02:11:46;;;;;;;5.90;4.22;;;19.20;96.70;;;;;;5084841;28;20031;-77
2021/10/04 02:14:16;;;;;;;7.15;4.32;;;19.30;96.70;;;;;;5084338;28;20047;-76
2021/10/04 02:16:44;;;;;;;7.57;4.30;;;19.30;96.70;;;;;;5081520;28;20035;-76
2021/10/04 02:19:13;;;;;;;8.82;3.72;;;19.30;96.70;;;;;;5087657;28;20039;-76
2021/10/04 02:21:41;;;;;;;7.78;4.35;;;19.30;96.70;;;;;;5103299;28;20044;-76
2021/10/04 02:24:09;;;;;;;7.15;4.13;;;19.20;96.70;;;;;;5082544;28;20043;-76
2021/10/04 02:26:37;;;;;;;5.38;4.18;;;19.20;96.70;;;;;;5074308;28;20044;-76
2021/10/04 02:29:05;;;;;;;5.68;3.70;;;19.20;96.70;;;;;;5081736;28;20039;-76
2021/10/04 02:31:35;;;;;;;6.88;4.53;;;19.10;96.70;;;;;;5102718;28;20048;-76
2021/10/04 02:34:03;;;;;;;5.45;3.90;;;19.20;96.70;;;;;;5083473;28;20090;-76
2021/10/04 02:36:31;;;;;;;6.47;3.80;;;19.20;96.70;;;;;;5103396;28;20089;-76
2021/10/04 02:38:59;;;;;;;6.82;3.83;;;19.20;96.70;;;;;;5084939;28;20085;-76
2021/10/04 02:41:27;;;;;;;6.18;3.72;;;19.10;96.70;;;;;;5089141;28;20511;-76
2021/10/04 02:43:55;;;;;;;8.05;3.83;;;19.10;96.70;;;;;;5084500;28;20120;-76
2021/10/04 02:46:23;;;;;;;7.13;3.80;;;19.10;96.70;;;;;;5107295;28;20048;-76
2021/10/04 02:48:53;;;;;;;5.82;3.58;;;19.10;96.70;;;;;;5105643;28;20484;-76
2021/10/04 02:51:21;;;;;;;4.97;3.97;;;19.20;96.70;;;;;;5105427;28;20528;-76
2021/10/04 02:53:49;;;;;;;5.82;3.92;;;19.10;96.70;;;;;;5083967;28;20059;-76
2021/10/04 02:56:18;;;;;;;6.28;4.30;;;19.20;96.70;;;;;;5085914;28;20481;-77
2021/10/04 02:58:46;;;;;;;6.45;4.72;;;19.20;96.70;;;;;;5078025;28;20071;-76
2021/10/04 03:01:15;;;;;;;7.07;4.47;;;19.10;96.70;;;;;;5085242;28;20066;-76
2021/10/04 03:03:43;;;;;;;8.00;3.95;;;19.00;96.70;;;;;;5063446;28;20138;-76
2021/10/04 03:06:13;;;;;;;7.50;4.10;;;19.00;96.70;;;;;;5085202;28;20055;-77
2021/10/04 03:08:41;;;;;;;7.97;4.05;;;19.00;96.70;;;;;;5086616;28;20040;-76
2021/10/04 03:11:09;;;;;;;6.07;4.43;;;19.00;96.70;;;;;;5083948;28;20421;-76
2021/10/04 03:13:37;;;;;;;6.72;4.20;;;19.00;96.70;;;;;;5082465;28;20044;-76
2021/10/04 03:16:07;;;;;;;6.40;4.00;;;19.00;96.70;;;;;;5083318;28;20043;-76
2021/10/04 03:18:35;;;;;;;5.32;3.65;;;19.10;96.70;;;;;;5084657;28;20503;-76
2021/10/04 03:21:03;;;;;;;8.02;4.75;;;19.10;96.70;;;;;;5084978;28;20044;-76
2021/10/04 03:23:33;;;;;;;7.82;4.53;;;19.00;96.70;;;;;;5084107;28;20032;-77
2021/10/04 03:26:01;;;;;;;7.25;4.20;;;19.00;96.70;;;;;;5075250;28;20135;-76
2021/10/04 03:28:29;;;;;;;6.28;4.15;;;19.00;96.70;;;;;;5095014;28;20243;-79
2021/10/04 03:30:57;;;;;;;6.60;4.13;;;18.90;96.70;;;;;;5084734;28;20032;-77
2021/10/04 03:33:26;;;;;;;7.05;4.30;;;18.90;96.70;;;;;;5066824;28;20036;-79
2021/10/04 03:35:54;;;;;;;6.00;3.60;;;18.90;96.70;;;;;;5084258;28;20141;-77
2021/10/04 03:38:22;;;;;;;7.88;3.92;;;18.90;96.70;;;;;;5086036;28;20154;-76
2021/10/04 03:40:52;;;;;;;4.05;3.00;;;18.90;96.70;;;;;;5083483;28;20040;-76
2021/10/04 03:43:20;;;;;;;6.22;3.90;;;18.90;96.70;;;;;;5084405;28;20412;-77
2021/10/04 03:45:48;;;;;;;6.38;4.13;;;18.90;96.70;;;;;;5081990;28;20103;-76
2021/10/04 03:48:16;;;;;;;7.82;4.80;;;18.90;96.70;;;;;;5081144;28;20058;-76
2021/10/04 03:50:44;;;;;;;7.70;4.10;;;18.90;96.70;;;;;;5076574;28;20394;-76
2021/10/04 03:53:13;;;;;;;5.00;3.80;;;18.90;96.70;;;;;;5083263;28;20044;-76
2021/10/04 03:55:42;;;;;;;5.82;3.97;;;18.90;96.70;;;;;;5082967;28;20558;-76
2021/10/04 03:58:12;;;;;;;7.28;3.65;;;18.80;96.70;;;;;;5085565;28;20044;-77
2021/10/04 04:00:40;;;;;;;5.47;3.83;;;18.80;96.70;;;;;;5080982;28;20036;-76
2021/10/04 04:03:08;;;;;;;5.75;4.22;;;18.80;96.70;;;;;;5084422;28;20048;-76
2021/10/04 04:05:36;;;;;;;8.60;4.13;;;18.80;96.70;;;;;;5066509;28;20459;-76
2021/10/04 04:08:05;;;;;;;6.05;4.35;;;18.80;96.70;;;;;;5081381;28;20098;-76
2021/10/04 04:10:33;;;;;;;7.93;4.13;;;18.80;96.70;;;;;;5081625;28;20408;-76
2021/10/04 04:13:01;;;;;;;6.43;4.50;;;18.80;96.70;;;;;;5084172;28;20032;-76
2021/10/04 04:15:31;;;;;;;6.93;4.30;;;18.80;96.70;;;;;;5064324;28;20040;-76
2021/10/04 04:17:59;;;;;;;6.85;4.10;;;18.80;96.70;;;;;;5084399;28;20043;-76
2021/10/04 04:20:27;;;;;;;7.22;3.97;;;18.80;96.70;;;;;;5082476;28;20068;-76
2021/10/04 04:22:55;;;;;;;7.00;4.30;;;18.70;96.70;;;;;;5080514;28;20036;-76
2021/10/04 04:25:23;;;;;;;5.68;4.20;;;18.60;96.70;;;;;;5081129;28;20036;-76
2021/10/04 04:27:51;;;;;;;5.45;4.18;;;18.60;96.70;;;;;;5082642;28;20051;-76
2021/10/04 04:30:19;;;;;;;6.15;3.70;;;18.60;96.70;;;;;;5081045;28;20036;-77
2021/10/04 04:32:48;;;;;;;7.50;3.72;;;18.60;96.70;;;;;;5093795;28;20048;-76
2021/10/04 04:35:17;;;;;;;7.85;4.22;;;18.70;96.70;;;;;;5083535;28;20043;-76
2021/10/04 04:37:45;;;;;;;6.72;3.70;;;18.60;96.70;;;;;;5079231;28;20395;-76
2021/10/04 04:40:15;;;;;;;7.88;4.35;;;18.70;96.70;;;;;;5081818;28;20406;-76
2021/10/04 04:42:44;;;;;;;5.90;3.90;;;18.60;96.70;;;;;;5083594;28;20054;-76
2021/10/04 04:45:14;;;;;;;6.30;4.30;;;18.60;96.70;;;;;;5081907;28;20048;-77
2021/10/04 04:47:43;;;;;;;6.20;4.10;;;18.70;96.70;;;;;;5081585;28;20152;-77
2021/10/04 04:50:14;;;;;;;9.68;4.55;;;18.70;96.70;;;;;;5081136;28;20040;-76
2021/10/04 04:52:42;;;;;;;8.43;4.38;;;18.70;96.70;;;;;;5094627;28;20078;-76
2021/10/04 04:55:10;;;;;;;6.18;3.88;;;18.70;96.70;;;;;;5077952;28;20485;-77
2021/10/04 04:57:38;;;;;;;5.40;4.28;;;18.70;96.70;;;;;;5078600;28;20047;-77
2021/10/04 05:00:09;;;;;;;7.95;4.20;;;18.70;96.70;;;;;;5079490;28;20596;-76
2021/10/04 05:02:42;;;;;;;7.43;4.22;;;18.70;96.70;;;;;;5075801;28;20044;-76
2021/10/04 05:05:13;;;;;;;5.22;3.45;;;18.70;96.70;;;;;;5081665;28;20040;-76
2021/10/04 05:07:41;;;;;;;8.27;3.72;;;18.70;96.70;;;;;;5080295;28;20130;-76
2021/10/04 05:10:09;;;;;;;5.10;3.85;;;18.80;96.70;;;;;;5081373;28;20440;-76
2021/10/04 05:12:39;;;;;;;5.40;3.95;;;18.80;96.70;;;;;;5081892;28;20036;-77
2021/10/04 05:15:08;;;;;;;8.30;4.22;;;18.80;96.70;;;;;;5098221;28;20070;-76
2021/10/04 05:17:36;;;;;;;7.93;4.15;;;18.80;96.70;;;;;;5078760;28;20595;-76
2021/10/04 05:20:05;;;;;;;7.03;3.90;;;18.80;96.70;;;;;;5083539;28;20046;-77
2021/10/04 05:22:37;;;;;;;6.60;3.50;;;18.80;96.70;;;;;;5079180;28;20117;-77
2021/10/04 05:25:07;;;;;;;7.35;4.22;;;18.70;96.70;;;;;;5082551;28;20044;-77
2021/10/04 05:27:35;;;;;;;6.90;4.40;;;18.80;96.70;;;;;;5082471;28;20421;-76
2021/10/04 05:30:04;;;;;;;5.78;4.18;;;18.80;96.70;;;;;;5081143;28;20048;-76
2021/10/04 05:32:33;;;;;;;6.13;3.85;;;18.80;96.70;;;;;;5080067;28;20048;-76
2021/10/04 05:35:01;;;;;;;4.78;3.72;;;18.80;96.70;;;;;;5081517;28;20401;-76
2021/10/04 05:37:29;;;;;;;6.47;3.83;;;18.80;96.70;;;;;;5075858;28;20501;-77
2021/10/04 05:39:59;;;;;;;13.05;4.18;;;18.70;96.70;;;;;;5080633;28;20493;-76
2021/10/04 05:42:32;;;;;;;6.15;3.95;;;18.80;96.70;;;;;;5080053;28;20052;-76
2021/10/04 05:45:00;;;;;;;7.32;4.10;;;18.70;96.70;;;;;;5081743;28;20048;-78
2021/10/04 05:47:28;;;;;;;7.43;3.88;;;18.70;96.70;;;;;;5081243;28;20050;-76
2021/10/04 05:49:56;;;;;;;7.18;4.35;;;18.70;96.70;;;;;;5082422;28;20044;-76
2021/10/04 05:52:24;;;;;;;7.38;3.80;;;18.80;96.70;;;;;;5081831;28;20067;-77
2021/10/04 05:54:52;;;;;;;7.55;3.83;;;18.80;96.70;;;;;;5080550;28;20043;-76
2021/10/04 05:57:22;;;;;;;5.80;3.70;;;18.80;96.70;;;;;;5082632;28;20390;-76
2021/10/04 05:59:55;;;;;;;10.23;3.80;;;18.80;96.70;;;;;;5055149;28;20067;-76
2021/10/04 06:02:23;;;;;;;6.68;3.78;;;18.80;96.70;;;;;;5081823;28;20051;-77
2021/10/04 06:04:52;;;;;;;5.45;3.90;;;18.70;96.70;;;;;;5080625;28;20044;-77
2021/10/04 06:07:20;;;;;;;7.97;4.35;;;18.70;96.70;;;;;;5081860;28;20058;-76
2021/10/04 06:09:48;;;;;;;5.68;4.05;;;18.80;96.70;;;;;;5081719;28;20521;-76
2021/10/04 06:12:16;;;;;;;7.47;4.05;;;18.80;96.70;;;;;;5080840;28;20123;-76
2021/10/04 06:14:45;;;;;;;8.30;4.32;;;18.90;96.70;;;;;;5079566;28;20047;-76
2021/10/04 06:17:13;;;;;;;10.85;5.00;;;19.00;96.70;;;;;;5095966;28;20085;-76
2021/10/04 06:19:41;;;;;;;8.23;4.15;;;19.10;96.70;;;;;;5075097;28;20074;-76
2021/10/04 06:22:09;;;;;;;6.93;3.97;;;19.20;96.70;;;;;;5082745;28;20050;-77
2021/10/04 06:24:37;;;;;;;6.28;3.92;;;19.30;96.70;;;;;;5078733;28;20035;-76
2021/10/04 06:27:06;;;;;;;8.15;4.38;;;19.30;96.70;;;;;;5079953;28;20059;-77
2021/10/04 06:29:34;;;;;;;5.65;3.85;;;19.40;96.70;;;;;;5078827;28;20127;-76
2021/10/04 06:32:04;;;;;;;10.35;4.88;;;19.50;96.70;;;;;;5083148;28;20074;-76
2021/10/04 06:34:32;;;;;;;6.53;4.10;;;19.50;96.70;;;;;;5078808;28;20048;-76
2021/10/04 06:37:01;;;;;;;9.00;3.70;;;19.50;96.70;;;;;;5076213;28;20690;-76
2021/10/04 06:39:29;;;;;;;7.82;4.00;;;19.60;96.70;;;;;;5078609;28;20139;-77
2021/10/04 06:41:57;;;;;;;4.60;3.42;;;19.60;96.70;;;;;;5079702;28;20077;-78
2021/10/04 06:44:31;;;;;;;5.60;3.70;;;19.60;96.70;;;;;;5080618;28;20501;-78
2021/10/04 06:47:00;;;;;;;6.13;3.95;;;19.70;96.70;;;;;;5074908;28;20046;-79
2021/10/04 06:49:34;;;;;;;5.65;4.28;;;19.80;96.70;;;;;;5080063;28;20036;-78
2021/10/04 06:52:05;;;;;;;4.70;3.33;;;19.70;96.70;;;;;;5069716;28;20135;-78
2021/10/04 06:54:33;;;;;;;46.22;34.88;;;19.70;96.70;;;;;;5083867;28;20050;-85
2021/10/04 06:57:01;;;;;;;15.98;14.35;;;19.80;96.70;;;;;;5084157;28;20067;-84
2021/10/04 06:59:30;;;;;;;11.60;8.18;;;19.80;96.70;;;;;;5101072;28;20162;-79
2021/10/04 07:02:04;;;;;;;7.90;6.47;;;19.80;96.70;;;;;;5068545;28;20044;-80
2021/10/04 07:04:34;;;;;;;9.77;6.30;;;19.80;96.70;;;;;;5102724;28;20374;-79
2021/10/04 07:07:03;;;;;;;12.25;7.00;;;19.90;96.70;;;;;;5099882;28;20220;-79
2021/10/04 07:09:31;;;;;;;7.82;5.40;;;19.90;96.70;;;;;;5102936;28;20391;-80
2021/10/04 07:11:59;;;;;;;16.17;8.93;;;20.00;96.70;;;;;;5102213;28;20465;-79
2021/10/04 07:14:28;;;;;;;12.93;5.72;;;20.00;96.70;;;;;;5101722;28;20044;-77
2021/10/04 07:16:56;;;;;;;7.60;6.03;;;20.10;96.70;;;;;;5101009;28;20527;-78
2021/10/04 07:19:24;;;;;;;14.82;11.38;;;20.20;96.70;;;;;;5102582;28;20032;-76
2021/10/04 07:21:53;;;;;;;25.05;19.45;;;20.20;96.70;;;;;;5081498;28;20040;-76
2021/10/04 07:24:22;;;;;;;11.40;10.20;;;20.30;96.70;;;;;;5082374;28;20039;-77
2021/10/04 07:26:50;;;;;;;11.68;8.00;;;20.30;96.70;;;;;;5080796;28;20134;-77
2021/10/04 07:29:19;;;;;;;8.60;6.60;;;20.30;96.70;;;;;;5092651;28;20120;-76
2021/10/04 07:31:48;;;;;;;15.20;8.32;;;20.30;96.70;;;;;;5102978;28;20497;-76
2021/10/04 07:34:16;;;;;;;12.68;8.70;;;20.30;96.70;;;;;;5105782;28;20047;-76
2021/10/04 07:36:44;;;;;;;14.35;10.25;;;20.30;96.70;;;;;;5079460;28;20564;-77
2021/10/04 07:39:15;;;;;;;18.63;12.98;;;20.30;96.70;;;;;;5101011;27;20105;-77
2021/10/04 07:41:46;;;;;;;23.10;16.42;;;20.40;96.70;;;;;;5088372;27;20046;-77
2021/10/04 07:44:16;;;;;;;17.63;11.23;;;20.40;96.70;;;;;;5090397;28;20565;-77
2021/10/04 07:46:44;;;;;;;22.15;14.25;;;20.40;96.70;;;;;;5085127;27;20126;-77
2021/10/04 07:49:12;;;;;;;21.88;11.70;;;20.40;96.70;;;;;;5105856;28;20531;-77
2021/10/04 07:51:55;;;;;;;19.30;12.63;;;20.30;96.70;;;;;;5088674;28;20055;-77
2021/10/04 07:54:25;;;;;;;10.32;8.02;;;20.30;96.70;;;;;;5087145;28;20108;-77
2021/10/04 07:56:53;;;;;;;30.42;20.60;;;20.30;96.70;;;;;;5087437;28;20064;-77
2021/10/04 07:59:21;;;;;;;13.63;10.13;;;20.30;96.70;;;;;;5077202;28;20205;-77
2021/10/04 08:01:50;;;;;;;23.65;15.98;;;20.30;96.70;;;;;;5104347;28;20591;-77
2021/10/04 08:04:19;;;;;;;69.20;53.20;;;20.30;96.70;;;;;;5085089;28;20482;-77
2021/10/04 08:06:47;;;;;;;52.88;35.58;;;20.40;96.70;;;;;;5104242;28;20535;-77
2021/10/04 08:09:15;;;;;;;33.85;18.92;;;20.40;96.70;;;;;;5099136;28;20054;-77
2021/10/04 08:11:45;;;;;;;101.88;72.22;;;20.40;96.70;;;;;;5086906;28;20039;-76
2021/10/04 08:14:13;;;;;;;103.00;68.63;;;20.40;96.70;;;;;;5099614;28;20055;-77
2021/10/04 08:16:41;;;;;;;36.63;22.90;;;20.40;96.70;;;;;;5086291;28;20132;-77
2021/10/04 08:19:10;;;;;;;59.10;41.35;;;20.40;96.70;;;;;;5084506;28;20105;-77
2021/10/04 08:21:38;;;;;;;18.33;12.98;;;20.40;96.70;;;;;;5104400;28;20088;-77
2021/10/04 08:24:07;;;;;;;13.55;7.90;;;20.50;96.70;;;;;;5086547;28;20354;-78
2021/10/04 08:26:35;;;;;;;9.20;7.40;;;20.50;96.70;;;;;;5106016;28;20059;-77
2021/10/04 08:29:05;;;;;;;11.35;7.35;;;20.60;96.70;;;;;;5086525;28;20055;-77
2021/10/04 08:31:33;;;;;;;10.57;6.97;;;20.60;96.70;;;;;;5104820;28;20489;-77
2021/10/04 08:34:03;;;;;;;8.43;6.68;;;20.70;96.70;;;;;;5103375;28;20400;-76
2021/10/04 08:36:34;;;;;;;7.90;6.35;;;20.70;96.70;;;;;;5101471;27;20053;-77
2021/10/04 08:39:04;;;;;;;11.57;7.97;;;20.70;96.70;;;;;;5085406;28;20028;-76
2021/10/04 08:41:34;;;;;;;9.32;6.30;;;20.80;96.70;;;;;;5085491;28;20083;-78
2021/10/04 08:44:07;;;;;;;9.43;6.40;;;20.80;96.70;;;;;;5104288;28;20104;-80
2021/10/04 08:46:37;;;;;;;7.55;5.95;;;20.90;96.70;;;;;;5104597;28;20500;-78
2021/10/04 08:49:11;;;;;;;8.07;6.13;;;20.90;96.70;;;;;;5096613;27;20046;-78
2021/10/04 08:51:39;;;;;;;8.57;6.05;;;20.90;96.70;;;;;;5099060;28;20071;-78
2021/10/04 08:54:08;;;;;;;8.32;6.05;;;21.00;96.70;;;;;;5092415;28;20100;-78
2021/10/04 08:56:37;;;;;;;9.27;6.57;;;21.10;96.70;;;;;;5083778;28;20543;-78
2021/10/04 08:59:07;;;;;;;10.70;7.07;;;21.10;96.70;;;;;;5067652;28;20047;-78
2021/10/04 09:01:35;;;;;;;10.30;7.05;;;21.10;96.70;;;;;;5099349;28;20042;-78
2021/10/04 09:04:05;;;;;;;10.73;7.82;;;21.20;96.70;;;;;;5083608;28;20044;-78
2021/10/04 09:06:35;;;;;;;8.80;7.47;;;21.20;96.70;;;;;;5103056;28;20507;-78
2021/10/04 09:09:05;;;;;;;11.13;7.57;;;21.30;96.70;;;;;;5098878;28;20056;-79
2021/10/04 09:11:36;;;;;;;10.65;7.10;;;21.40;96.70;;;;;;5079811;28;20067;-78
2021/10/04 09:14:09;;;;;;;10.70;6.88;;;21.40;96.70;;;;;;5103338;28;20097;-78
2021/10/04 09:17:00;;;;;;;8.00;5.80;;;21.50;96.70;;;;;;5079840;28;20043;-79
2021/10/04 09:19:31;;;;;;;10.27;6.68;;;21.50;96.70;;;;;;5079204;28;20127;-79
2021/10/04 09:22:08;;;;;;;8.30;6.07;;;21.60;96.70;;;;;;5068504;28;20040;-79
2021/10/04 09:24:37;;;;;;;8.23;6.50;;;21.70;96.70;;;;;;5102071;28;20046;-78
2021/10/04 09:27:24;;;;;;;9.98;6.47;;;21.70;96.70;;;;;;5080900;28;20577;-78
2021/10/04 09:29:54;;;;;;;9.95;6.72;;;21.80;96.70;;;;;;5098529;28;20139;-79
2021/10/04 09:32:25;;;;;;;12.75;7.30;;;21.90;96.70;;;;;;5102701;28;20049;-79
2021/10/04 09:35:12;;;;;;;10.45;6.72;;;22.00;96.70;;;;;;5100852;28;20073;-79
2021/10/04 09:37:41;;;;;;;9.30;7.25;;;22.10;96.70;;;;;;5091356;27;20466;-79
2021/10/04 09:40:26;;;;;;;7.90;5.97;;;22.20;96.70;;;;;;5103388;28;20051;-79
2021/10/04 09:42:54;;;;;;;8.85;6.35;;;22.30;96.70;;;;;;5103522;28;20044;-78
2021/10/04 09:45:25;;;;;;;8.77;6.25;;;22.40;96.70;;;;;;5100316;28;20070;-79
2021/10/04 09:47:55;;;;;;;14.07;7.20;;;22.40;96.70;;;;;;5100271;28;20399;-79
2021/10/04 09:50:28;;;;;;;8.98;6.60;;;22.40;96.70;;;;;;5084077;28;20043;-79
2021/10/04 09:52:57;;;;;;;15.85;7.00;;;22.50;96.70;;;;;;5101762;28;20080;-78
2021/10/04 09:55:30;;;;;;;9.23;6.75;;;22.70;96.70;;;;;;5100645;28;20054;-79
2021/10/04 09:58:02;;;;;;;8.60;5.75;;;22.80;96.70;;;;;;5085061;28;20040;-79
2021/10/04 10:00:35;;;;;;;10.85;6.60;;;22.80;96.70;;;;;;5102055;28;20028;-78
2021/10/04 10:03:05;;;;;;;18.67;7.10;;;22.80;96.70;;;;;;5103609;28;20044;-78
2021/10/04 10:05:34;;;;;;;9.27;5.88;;;23.00;96.70;;;;;;5084288;28;20075;-79
2021/10/04 10:08:04;;;;;;;8.73;6.10;;;23.10;96.70;;;;;;5103152;28;20519;-79
2021/10/04 10:10:38;;;;;;;9.82;6.10;;;23.20;96.70;;;;;;5097915;28;20059;-79
2021/10/04 10:13:09;;;;;;;7.88;5.93;;;23.30;96.70;;;;;;5083632;28;20067;-79
2021/10/04 10:15:44;;;;;;;9.25;5.85;;;23.30;96.70;;;;;;5103174;28;20031;-79
2021/10/04 10:18:19;;;;;;;7.35;5.55;;;23.40;96.70;;;;;;5104026;28;20135;-78
2021/10/04 10:20:54;;;;;;;10.77;6.25;;;23.40;96.70;;;;;;5083410;28;20827;-79
2021/10/04 10:23:43;;;;;;;9.02;6.13;;;23.40;96.70;;;;;;5099064;28;20042;-79
2021/10/04 10:26:29;;;;;;;8.60;5.68;;;23.40;96.70;;;;;;5097581;28;20043;-79
2021/10/04 10:29:23;;;;;;;6.40;5.20;;;23.40;96.70;;;;;;5083217;28;20044;-78
2021/10/04 10:32:14;;;;;;;7.82;5.63;;;23.40;96.70;;;;;;5100400;28;20038;-78
2021/10/04 10:34:54;;;;;;;7.13;5.50;;;23.60;96.70;;;;;;5082494;28;20641;-79
2021/10/04 10:37:27;;;;;;;8.18;5.72;;;23.90;96.70;;;;;;5102911;28;20081;-79
2021/10/04 10:39:58;;;;;;;10.98;6.43;;;23.80;96.70;;;;;;5076508;28;20508;-79
2021/10/04 10:42:28;;;;;;;7.82;6.15;;;23.90;96.70;;;;;;5074429;28;20054;-79
2021/10/04 10:45:17;;;;;;;12.95;6.90;;;24.00;96.70;;;;;;5064899;28;20374;-78
2021/10/04 10:47:55;;;;;;;7.70;6.72;;;24.10;96.70;;;;;;5098530;28;20504;-78
2021/10/04 10:50:38;;;;;;;12.48;8.35;;;24.10;96.70;;;;;;5082193;28;20123;-78
2021/10/04 10:53:29;;;;;;;15.23;9.50;;;24.30;96.70;;;;;;5078823;28;20140;-78
2021/10/04 10:56:00;;;;;;;8.13;7.18;;;24.40;96.70;;;;;;5080811;28;20131;-78
2021/10/04 10:58:30;;;;;;;8.55;6.43;;;24.50;96.70;;;;;;5080811;28;20569;-79
2021/10/04 11:01:05;;;;;;;9.13;6.10;;;24.50;96.70;;;;;;5086173;28;20077;-79
2021/10/04 11:03:48;;;;;;;6.80;5.63;;;24.40;96.70;;;;;;5084048;28;20047;-79
2021/10/04 11:06:17;;;;;;;8.38;6.38;;;24.40;96.70;;;;;;5085468;28;20550;-79
2021/10/04 11:08:59;;;;;;;9.82;6.15;;;24.60;96.70;;;;;;5083949;28;20067;-78
2021/10/04 11:11:32;;;;;;;9.05;5.95;;;24.80;96.70;;;;;;5083161;28;20056;-79
2021/10/04 11:14:08;;;;;;;7.30;5.60;;;24.90;96.70;;;;;;5082856;28;20059;-79
2021/10/04 11:16:38;;;;;;;9.15;6.15;;;25.00;96.70;;;;;;5071552;28;20079;-78
2021/10/04 11:19:20;;;;;;;6.78;5.75;;;25.00;96.70;;;;;;5067290;28;20048;-78
2021/10/04 11:21:51;;;;;;;8.30;6.13;;;25.10;96.70;;;;;;5083246;28;20481;-79
2021/10/04 11:24:21;;;;;;;7.63;6.00;;;25.20;96.70;;;;;;5084681;28;20180;-79
2021/10/04 11:26:55;;;;;;;8.27;5.72;;;25.20;96.70;;;;;;5077036;28;20043;-78
2021/10/04 11:29:25;;;;;;;6.35;4.90;;;25.20;96.70;;;;;;5085904;28;20123;-79
2021/10/04 11:31:54;;;;;;;6.00;4.72;;;25.30;96.70;;;;;;5084052;28;20090;-79
2021/10/04 11:34:24;;;;;;;5.68;5.07;;;25.40;96.70;;;;;;5084517;28;20067;-78
2021/10/04 11:36:55;;;;;;;6.43;4.78;;;25.50;96.70;;;;;;5083372;28;20044;-79
2021/10/04 11:39:24;;;;;;;8.10;5.78;;;25.50;96.70;;;;;;5084566;28;20059;-79
2021/10/04 11:41:55;;;;;;;8.60;5.72;;;25.50;96.70;;;;;;5062451;28;20040;-79
2021/10/04 11:44:27;;;;;;;8.48;5.60;;;25.40;96.70;;;;;;5084872;28;20044;-79
2021/10/04 11:46:57;;;;;;;6.43;5.18;;;25.50;96.70;;;;;;5080796;28;20047;-78
2021/10/04 11:49:29;;;;;;;5.82;4.88;;;25.50;96.70;;;;;;5070034;28;20364;-79
2021/10/04 11:51:59;;;;;;;6.45;4.63;;;25.50;96.70;;;;;;5078526;28;20055;-79
2021/10/04 11:54:33;;;;;;;5.32;4.53;;;25.60;96.70;;;;;;5105907;28;20227;-78
2021/10/04 11:57:04;;;;;;;8.77;5.45;;;25.70;96.70;;;;;;5104589;28;20114;-78
2021/10/04 11:59:47;;;;;;;7.13;4.90;;;25.70;96.70;;;;;;5086772;28;20036;-78
2021/10/04 12:02:24;;;;;;;7.18;4.88;;;25.80;96.70;;;;;;5085966;28;20054;-78
2021/10/04 12:05:15;;;;;;;5.72;4.85;;;25.90;96.70;;;;;;5104925;28;20114;-78
2021/10/04 12:08:11;;;;;;;6.35;4.38;;;25.90;96.70;;;;;;5084023;28;20505;-79
2021/10/04 12:10:43;;;;;;;5.75;4.78;;;25.80;96.70;;;;;;5067182;28;20128;-80
2021/10/04 12:13:12;;;;;;;8.32;5.03;;;25.90;96.70;;;;;;5085980;28;20083;-80
2021/10/04 12:15:41;;;;;;;6.70;5.28;;;25.90;96.70;;;;;;5086151;28;20124;-80
2021/10/04 12:18:13;;;;;;;5.78;4.93;;;25.90;96.70;;;;;;5086406;28;20044;-79
2021/10/04 12:20:44;;;;;;;6.50;4.97;;;25.90;96.70;;;;;;5084532;28;20342;-79
2021/10/04 12:23:17;;;;;;;6.43;4.93;;;25.70;96.70;;;;;;5100982;28;20063;-86
2021/10/04 12:25:47;;;;;;;6.93;5.47;;;25.60;96.70;;;;;;5082803;28;20151;-86
2021/10/04 12:28:18;;;;;;;7.00;4.80;;;25.60;96.70;;;;;;5084731;28;20071;-86
2021/10/04 12:30:49;;;;;;;7.78;5.10;;;25.50;96.70;;;;;;5103110;28;20558;-86
2021/10/04 12:33:19;;;;;;;7.32;5.35;;;25.60;96.70;;;;;;5085051;28;20697;-83
2021/10/04 12:35:49;;;;;;;7.68;5.40;;;25.70;96.70;;;;;;5083337;28;20036;-85
2021/10/04 12:38:18;;;;;;;10.35;5.10;;;25.70;96.70;;;;;;5101077;27;21755;-85
2021/10/04 12:40:47;;;;;;;5.88;4.90;;;25.70;96.70;;;;;;5101971;27;20040;-84
2021/10/04 12:43:25;;;;;;;7.15;5.25;;;25.70;96.70;;;;;;5085141;28;20147;-83
2021/10/04 12:45:56;;;;;;;7.93;4.60;;;25.80;96.70;;;;;;5085925;28;20278;-83
2021/10/04 12:48:26;;;;;;;5.25;4.70;;;25.70;96.70;;;;;;5105853;27;20521;-86
2021/10/04 12:51:07;;;;;;;6.65;4.75;;;25.70;96.70;;;;;;5103479;28;20702;-85
2021/10/04 12:53:45;;;;;;;7.07;5.03;;;25.50;96.70;;;;;;5084819;28;20321;-84
2021/10/04 12:56:19;;;;;;;5.93;4.97;;;25.50;96.70;;;;;;5083147;28;20040;-84
2021/10/04 12:59:00;;;;;;;7.72;4.78;;;25.40;96.70;;;;;;5104302;28;20040;-85